sensor_id;sensor_type;location;lat;lon;timestamp;P1;durP1;ratioP1;P2;durP2;ratioP2
43690;SDS011;29293;52.190;21.226;2022-11-10T00:04:04;56.40;;;31.00;;
43690;SDS011;29293;52.190;21.226;2022-11-10T00:19:17;60.70;;;32.40;;
43690;SDS011;29293;52.190;21.226;2022-11-10T00:34:27;62.80;;;33.20;;
43690;SDS011;29293;52.190;21.226;2022-11-10T00:49:37;61.10;;;35.90;;
43690;SDS011;29293;52.190;21.226;2022-11-10T01:04:46;61.00;;;32.30;;
43690;SDS011;29293;52.190;21.226;2022-11-10T01:19:55;71.10;;;36.60;;
43690;SDS011;29293;52.190;21.226;2022-11-10T01:35:05;69.30;;;36.40;;
43690;SDS011;29293;52.190;21.226;2022-11-10T01:50:16;61.00;;;33.80;;
43690;SDS011;29293;52.190;21.226;2022-11-10T02:05:26;71.30;;;35.80;;
43690;SDS011;29293;52.190;21.226;2022-11-10T02:20:35;73.00;;;38.40;;
43690;SDS011;29293;52.190;21.226;2022-11-10T02:35:45;67.40;;;36.00;;
43690;SDS011;29293;52.190;21.226;2022-11-10T02:50:52;71.80;;;38.70;;
43690;SDS011;29293;52.190;21.226;2022-11-10T03:06:00;68.60;;;36.70;;
43690;SDS011;29293;52.190;21.226;2022-11-10T03:21:07;62.00;;;33.90;;
43690;SDS011;29293;52.190;21.226;2022-11-10T03:36:15;69.40;;;35.90;;
43690;SDS011;29293;52.190;21.226;2022-11-10T03:51:22;65.60;;;36.40;;
43690;SDS011;29293;52.190;21.226;2022-11-10T04:06:29;62.50;;;35.80;;
43690;SDS011;29293;52.190;21.226;2022-11-10T04:21:54;75.30;;;40.10;;
43690;SDS011;29293;52.190;21.226;2022-11-10T04:37:01;66.70;;;37.70;;
43690;SDS011;29293;52.190;21.226;2022-11-10T04:52:09;65.40;;;37.40;;
43690;SDS011;29293;52.190;21.226;2022-11-10T05:07:16;74.90;;;43.70;;
43690;SDS011;29293;52.190;21.226;2022-11-10T05:22:23;71.60;;;40.30;;
43690;SDS011;29293;52.190;21.226;2022-11-10T05:37:30;69.80;;;41.20;;
43690;SDS011;29293;52.190;21.226;2022-11-10T05:52:39;75.60;;;41.90;;
43690;SDS011;29293;52.190;21.226;2022-11-10T06:07:48;80.00;;;43.60;;
43690;SDS011;29293;52.190;21.226;2022-11-10T06:22:59;80.60;;;42.90;;
43690;SDS011;29293;52.190;21.226;2022-11-10T06:38:08;76.70;;;42.70;;
43690;SDS011;29293;52.190;21.226;2022-11-10T06:53:16;76.50;;;43.40;;
43690;SDS011;29293;52.190;21.226;2022-11-10T07:08:23;66.80;;;36.70;;
43690;SDS011;29293;52.190;21.226;2022-11-10T07:23:30;71.10;;;37.30;;
43690;SDS011;29293;52.190;21.226;2022-11-10T07:38:38;68.60;;;38.20;;
43690;SDS011;29293;52.190;21.226;2022-11-10T07:53:45;75.00;;;38.00;;
43690;SDS011;29293;52.190;21.226;2022-11-10T08:08:52;78.40;;;41.10;;
43690;SDS011;29293;52.190;21.226;2022-11-10T08:23:59;79.50;;;40.90;;
43690;SDS011;29293;52.190;21.226;2022-11-10T08:39:07;73.70;;;38.30;;
43690;SDS011;29293;52.190;21.226;2022-11-10T08:54:15;83.80;;;40.50;;
43690;SDS011;29293;52.190;21.226;2022-11-10T09:09:22;81.10;;;40.50;;
43690;SDS011;29293;52.190;21.226;2022-11-10T09:24:30;88.50;;;40.20;;
43690;SDS011;29293;52.190;21.226;2022-11-10T09:39:37;78.20;;;36.00;;
43690;SDS011;29293;52.190;21.226;2022-11-10T09:54:45;68.60;;;33.40;;
43690;SDS011;29293;52.190;21.226;2022-11-10T10:10:01;57.20;;;32.80;;
43690;SDS011;29293;52.190;21.226;2022-11-10T10:25:17;53.70;;;29.70;;
43690;SDS011;29293;52.190;21.226;2022-11-10T10:40:26;53.50;;;31.60;;
43690;SDS011;29293;52.190;21.226;2022-11-10T10:55:33;58.10;;;32.00;;
43690;SDS011;29293;52.190;21.226;2022-11-10T11:10:43;56.70;;;33.80;;
43690;SDS011;29293;52.190;21.226;2022-11-10T11:25:50;53.40;;;31.00;;
43690;SDS011;29293;52.190;21.226;2022-11-10T11:41:06;52.40;;;32.70;;
43690;SDS011;29293;52.190;21.226;2022-11-10T11:56:25;45.70;;;27.90;;
43690;SDS011;29293;52.190;21.226;2022-11-10T12:11:37;40.30;;;27.20;;
43690;SDS011;29293;52.190;21.226;2022-11-10T12:26:55;44.40;;;27.30;;
43690;SDS011;29293;52.190;21.226;2022-11-10T12:42:09;31.40;;;21.80;;
43690;SDS011;29293;52.190;21.226;2022-11-10T12:57:20;34.50;;;20.90;;
43690;SDS011;29293;52.190;21.226;2022-11-10T13:12:30;29.80;;;18.90;;
43690;SDS011;29293;52.190;21.226;2022-11-10T13:27:50;27.30;;;17.60;;
43690;SDS011;29293;52.190;21.226;2022-11-10T13:43:21;36.70;;;23.50;;
43690;SDS011;29293;52.190;21.226;2022-11-10T13:58:31;25.40;;;17.20;;
43690;SDS011;29293;52.190;21.226;2022-11-10T14:13:41;23.40;;;17.10;;
43690;SDS011;29293;52.190;21.226;2022-11-10T14:28:52;31.40;;;17.40;;
43690;SDS011;29293;52.190;21.226;2022-11-10T14:44:02;26.30;;;17.60;;
43690;SDS011;29293;52.190;21.226;2022-11-10T14:59:10;28.70;;;17.50;;
43690;SDS011;29293;52.190;21.226;2022-11-10T15:14:32;23.80;;;15.70;;
43690;SDS011;29293;52.190;21.226;2022-11-10T15:29:45;28.50;;;17.20;;
43690;SDS011;29293;52.190;21.226;2022-11-10T15:44:52;25.70;;;16.30;;
43690;SDS011;29293;52.190;21.226;2022-11-10T16:00:02;25.50;;;15.50;;
43690;SDS011;29293;52.190;21.226;2022-11-10T16:15:12;24.00;;;15.40;;
43690;SDS011;29293;52.190;21.226;2022-11-10T16:30:24;35.50;;;18.90;;
43690;SDS011;29293;52.190;21.226;2022-11-10T16:45:31;24.10;;;15.70;;
43690;SDS011;29293;52.190;21.226;2022-11-10T17:00:39;32.90;;;21.00;;
43690;SDS011;29293;52.190;21.226;2022-11-10T17:15:46;30.90;;;18.80;;
43690;SDS011;29293;52.190;21.226;2022-11-10T17:30:55;29.40;;;20.70;;
43690;SDS011;29293;52.190;21.226;2022-11-10T17:46:02;27.30;;;17.90;;
43690;SDS011;29293;52.190;21.226;2022-11-10T18:01:12;26.40;;;17.60;;
43690;SDS011;29293;52.190;21.226;2022-11-10T18:16:22;24.90;;;17.50;;
43690;SDS011;29293;52.190;21.226;2022-11-10T18:31:30;32.50;;;18.40;;
43690;SDS011;29293;52.190;21.226;2022-11-10T18:46:37;33.90;;;19.20;;
43690;SDS011;29293;52.190;21.226;2022-11-10T19:01:44;30.30;;;20.60;;
43690;SDS011;29293;52.190;21.226;2022-11-10T19:16:52;29.70;;;19.40;;
43690;SDS011;29293;52.190;21.226;2022-11-10T19:31:59;24.50;;;17.40;;
43690;SDS011;29293;52.190;21.226;2022-11-10T19:47:06;32.60;;;20.40;;
43690;SDS011;29293;52.190;21.226;2022-11-10T20:02:13;23.30;;;17.60;;
43690;SDS011;29293;52.190;21.226;2022-11-10T20:17:21;32.70;;;20.50;;
43690;SDS011;29293;52.190;21.226;2022-11-10T20:32:29;31.70;;;20.90;;
43690;SDS011;29293;52.190;21.226;2022-11-10T20:47:36;27.30;;;19.50;;
43690;SDS011;29293;52.190;21.226;2022-11-10T21:02:43;28.40;;;17.50;;
43690;SDS011;29293;52.190;21.226;2022-11-10T21:17:50;29.90;;;21.40;;
43690;SDS011;29293;52.190;21.226;2022-11-10T21:32:58;26.00;;;19.60;;
43690;SDS011;29293;52.190;21.226;2022-11-10T21:48:05;28.50;;;19.30;;
43690;SDS011;29293;52.190;21.226;2022-11-10T22:03:13;27.70;;;19.50;;
43690;SDS011;29293;52.190;21.226;2022-11-10T22:18:21;32.60;;;23.20;;
43690;SDS011;29293;52.190;21.226;2022-11-10T22:33:44;46.10;;;28.20;;
43690;SDS011;29293;52.190;21.226;2022-11-10T22:48:51;32.70;;;21.90;;
43690;SDS011;29293;52.190;21.226;2022-11-10T23:03:59;33.40;;;22.20;;
43690;SDS011;29293;52.190;21.226;2022-11-10T23:19:08;39.50;;;24.70;;
43690;SDS011;29293;52.190;21.226;2022-11-10T23:34:16;36.30;;;22.70;;
43690;SDS011;29293;52.190;21.226;2022-11-10T23:49:23;33.80;;;23.30;;
